sensor_id;sensor_type;location;lat;lon;timestamp;pressure;altitude;pressure_sealevel;temperature;humidity
5988;BME280;3021;51.000;6.980;2024-03-02T00:00:01;67159.19;;;7.73;100.00
5988;BME280;3021;51.000;6.980;2024-03-02T00:02:34;67161.19;;;7.70;100.00
5988;BME280;3021;51.000;6.980;2024-03-02T00:05:04;67170.59;;;7.81;100.00
5988;BME280;3021;51.000;6.980;2024-03-02T00:07:30;67163.09;;;7.74;100.00
5988;BME280;3021;51.000;6.980;2024-03-02T00:09:56;67176.50;;;7.88;100.00
5988;BME280;3021;51.000;6.980;2024-03-02T00:12:22;67163.66;;;7.74;100.00
5988;BME280;3021;51.000;6.980;2024-03-02T00:14:47;67172.31;;;7.82;100.00
5988;BME280;3021;51.000;6.980;2024-03-02T00:17:17;67182.13;;;7.91;100.00
5988;BME280;3021;51.000;6.980;2024-03-02T00:19:48;67179.22;;;7.88;100.00
5988;BME280;3021;51.000;6.980;2024-03-02T00:22:17;67184.41;;;7.93;100.00
5988;BME280;3021;51.000;6.980;2024-03-02T00:24:43;67177.09;;;7.89;100.00
5988;BME280;3021;51.000;6.980;2024-03-02T00:27:12;67177.50;;;7.87;100.00
5988;BME280;3021;51.000;6.980;2024-03-02T00:29:40;67178.06;;;7.87;100.00
5988;BME280;3021;51.000;6.980;2024-03-02T00:32:13;67205.16;;;8.11;100.00
5988;BME280;3021;51.000;6.980;2024-03-02T00:34:41;67220.75;;;8.25;100.00
5988;BME280;3021;51.000;6.980;2024-03-02T00:37:07;67236.47;;;8.42;100.00
5988;BME280;3021;51.000;6.980;2024-03-02T00:39:32;67237.03;;;8.42;100.00
5988;BME280;3021;51.000;6.980;2024-03-02T00:41:58;67237.47;;;8.40;100.00
5988;BME280;3021;51.000;6.980;2024-03-02T00:44:25;67235.88;;;8.41;100.00
5988;BME280;3021;51.000;6.980;2024-03-02T00:46:51;67239.78;;;8.42;100.00
5988;BME280;3021;51.000;6.980;2024-03-02T00:49:21;67247.88;;;8.50;100.00
5988;BME280;3021;51.000;6.980;2024-03-02T00:51:48;67244.41;;;8.46;100.00
5988;BME280;3021;51.000;6.980;2024-03-02T00:54:14;67251.50;;;8.55;100.00
5988;BME280;3021;51.000;6.980;2024-03-02T00:56:41;67252.50;;;8.54;100.00
5988;BME280;3021;51.000;6.980;2024-03-02T00:59:06;67245.72;;;8.50;100.00
5988;BME280;3021;51.000;6.980;2024-03-02T01:01:33;67247.88;;;8.50;100.00
5988;BME280;3021;51.000;6.980;2024-03-02T01:03:59;67250.31;;;8.54;100.00
5988;BME280;3021;51.000;6.980;2024-03-02T01:06:24;67238.22;;;8.43;100.00
5988;BME280;3021;51.000;6.980;2024-03-02T01:08:50;67237.63;;;8.43;100.00
5988;BME280;3021;51.000;6.980;2024-03-02T01:11:16;67236.88;;;8.40;100.00
5988;BME280;3021;51.000;6.980;2024-03-02T01:13:43;67228.81;;;8.33;100.00
5988;BME280;3021;51.000;6.980;2024-03-02T01:16:08;67215.41;;;8.18;100.00
5988;BME280;3021;51.000;6.980;2024-03-02T01:18:33;67199.56;;;8.09;100.00
5988;BME280;3021;51.000;6.980;2024-03-02T01:20:59;67201.28;;;8.10;100.00
5988;BME280;3021;51.000;6.980;2024-03-02T01:23:25;67187.44;;;7.98;100.00
5988;BME280;3021;51.000;6.980;2024-03-02T01:25:51;67178.22;;;7.90;100.00
5988;BME280;3021;51.000;6.980;2024-03-02T01:28:17;67186.28;;;7.97;100.00
5988;BME280;3021;51.000;6.980;2024-03-02T01:30:42;67186.16;;;7.94;100.00
5988;BME280;3021;51.000;6.980;2024-03-02T01:33:08;67179.66;;;7.86;100.00
5988;BME280;3021;51.000;6.980;2024-03-02T01:35:33;67172.47;;;7.85;100.00
5988;BME280;3021;51.000;6.980;2024-03-02T01:38:00;67188.28;;;7.94;100.00
5988;BME280;3021;51.000;6.980;2024-03-02T01:40:25;67170.88;;;7.86;100.00
5988;BME280;3021;51.000;6.980;2024-03-02T01:42:53;67173.88;;;7.81;100.00
5988;BME280;3021;51.000;6.980;2024-03-02T01:45:23;67167.69;;;7.78;100.00
5988;BME280;3021;51.000;6.980;2024-03-02T01:47:49;67184.41;;;7.93;100.00
5988;BME280;3021;51.000;6.980;2024-03-02T01:50:15;67191.34;;;7.99;100.00
5988;BME280;3021;51.000;6.980;2024-03-02T01:52:41;67202.44;;;8.11;100.00
5988;BME280;3021;51.000;6.980;2024-03-02T01:55:07;67215.13;;;8.23;100.00
5988;BME280;3021;51.000;6.980;2024-03-02T01:57:34;67227.25;;;8.34;100.00
5988;BME280;3021;51.000;6.980;2024-03-02T02:00:00;67222.47;;;8.27;100.00
5988;BME280;3021;51.000;6.980;2024-03-02T02:02:25;67199.56;;;8.09;100.00
5988;BME280;3021;51.000;6.980;2024-03-02T02:04:51;67188.59;;;7.99;100.00
5988;BME280;3021;51.000;6.980;2024-03-02T02:07:16;67181.69;;;7.93;100.00
5988;BME280;3021;51.000;6.980;2024-03-02T02:09:42;67212.25;;;8.20;100.00
5988;BME280;3021;51.000;6.980;2024-03-02T02:12:08;67227.09;;;8.31;100.00
5988;BME280;3021;51.000;6.980;2024-03-02T02:14:33;67236.63;;;8.44;100.00
5988;BME280;3021;51.000;6.980;2024-03-02T02:16:59;67246.16;;;8.48;100.00
5988;BME280;3021;51.000;6.980;2024-03-02T02:19:25;67246.88;;;8.51;100.00
5988;BME280;3021;51.000;6.980;2024-03-02T02:21:50;67249.03;;;8.51;100.00
5988;BME280;3021;51.000;6.980;2024-03-02T02:24:15;67241.25;;;8.48;100.00
5988;BME280;3021;51.000;6.980;2024-03-02T02:26:40;67238.94;;;8.46;100.00
5988;BME280;3021;51.000;6.980;2024-03-02T02:29:06;67241.13;;;8.46;100.00
5988;BME280;3021;51.000;6.980;2024-03-02T02:31:38;67230.53;;;8.34;100.00
5988;BME280;3021;51.000;6.980;2024-03-02T02:34:04;67219.59;;;8.24;100.00
5988;BME280;3021;51.000;6.980;2024-03-02T02:36:29;67220.91;;;8.28;100.00
5988;BME280;3021;51.000;6.980;2024-03-02T02:38:55;67217.84;;;8.23;100.00
5988;BME280;3021;51.000;6.980;2024-03-02T02:41:20;67242.69;;;8.45;100.00
5988;BME280;3021;51.000;6.980;2024-03-02T02:43:45;67246.00;;;8.45;100.00
5988;BME280;3021;51.000;6.980;2024-03-02T02:46:11;67257.69;;;8.58;100.00
5988;BME280;3021;51.000;6.980;2024-03-02T02:48:36;67255.94;;;8.57;100.00
5988;BME280;3021;51.000;6.980;2024-03-02T02:51:01;67245.13;;;8.50;100.00
5988;BME280;3021;51.000;6.980;2024-03-02T02:53:27;67262.44;;;8.65;100.00
5988;BME280;3021;51.000;6.980;2024-03-02T02:55:52;67249.19;;;8.53;100.00
5988;BME280;3021;51.000;6.980;2024-03-02T02:58:18;67260.00;;;8.60;100.00
5988;BME280;3021;51.000;6.980;2024-03-02T03:00:43;67260.13;;;8.63;100.00
5988;BME280;3021;51.000;6.980;2024-03-02T03:03:08;67267.06;;;8.69;100.00
5988;BME280;3021;51.000;6.980;2024-03-02T03:05:33;67269.81;;;8.69;100.00
5988;BME280;3021;51.000;6.980;2024-03-02T03:07:59;67263.47;;;8.63;100.00
5988;BME280;3021;51.000;6.980;2024-03-02T03:10:24;67274.44;;;8.73;100.00
5988;BME280;3021;51.000;6.980;2024-03-02T03:12:51;67272.09;;;8.71;100.00
5988;BME280;3021;51.000;6.980;2024-03-02T03:15:17;67266.47;;;8.69;100.00
5988;BME280;3021;51.000;6.980;2024-03-02T03:17:42;67262.44;;;8.65;100.00
5988;BME280;3021;51.000;6.980;2024-03-02T03:20:08;67250.75;;;8.52;100.00
5988;BME280;3021;51.000;6.980;2024-03-02T03:22:38;67260.00;;;8.60;100.00
5988;BME280;3021;51.000;6.980;2024-03-02T03:25:03;67254.94;;;8.58;100.00
5988;BME280;3021;51.000;6.980;2024-03-02T03:27:29;67246.31;;;8.51;100.00
5988;BME280;3021;51.000;6.980;2024-03-02T03:29:54;67262.88;;;8.63;100.00
5988;BME280;3021;51.000;6.980;2024-03-02T03:32:20;67255.53;;;8.59;100.00
5988;BME280;3021;51.000;6.980;2024-03-02T03:34:45;67251.78;;;8.51;100.00
5988;BME280;3021;51.000;6.980;2024-03-02T03:37:11;67249.75;;;8.54;100.00
5988;BME280;3021;51.000;6.980;2024-03-02T03:39:36;67240.53;;;8.45;100.00
5988;BME280;3021;51.000;6.980;2024-03-02T03:42:02;67232.88;;;8.36;100.00
5988;BME280;3021;51.000;6.980;2024-03-02T03:44:27;67245.00;;;8.47;100.00
5988;BME280;3021;51.000;6.980;2024-03-02T03:46:52;67235.88;;;8.41;100.00
5988;BME280;3021;51.000;6.980;2024-03-02T03:49:18;67230.38;;;8.31;100.00
5988;BME280;3021;51.000;6.980;2024-03-02T03:51:43;67234.88;;;8.43;100.00
5988;BME280;3021;51.000;6.980;2024-03-02T03:54:08;67233.75;;;8.42;100.00
5988;BME280;3021;51.000;6.980;2024-03-02T03:56:36;67235.75;;;8.39;100.00
5988;BME280;3021;51.000;6.980;2024-03-02T03:59:01;67232.88;;;8.36;100.00
5988;BME280;3021;51.000;6.980;2024-03-02T04:01:27;67212.66;;;8.18;100.00
5988;BME280;3021;51.000;6.980;2024-03-02T04:03:52;67201.88;;;8.11;100.00
5988;BME280;3021;51.000;6.980;2024-03-02T04:06:17;67197.69;;;8.05;100.00
5988;BME280;3021;51.000;6.980;2024-03-02T04:08:43;67185.16;;;7.96;100.00
5988;BME280;3021;51.000;6.980;2024-03-02T04:11:08;67158.63;;;7.72;100.00
5988;BME280;3021;51.000;6.980;2024-03-02T04:13:33;67145.22;;;7.58;100.00
5988;BME280;3021;51.000;6.980;2024-03-02T04:15:59;67147.09;;;7.62;100.00
5988;BME280;3021;51.000;6.980;2024-03-02T04:18:24;67139.31;;;7.50;100.00
5988;BME280;3021;51.000;6.980;2024-03-02T04:20:49;67130.81;;;7.45;100.00
5988;BME280;3021;51.000;6.980;2024-03-02T04:23:15;67151.56;;;7.64;100.00
5988;BME280;3021;51.000;6.980;2024-03-02T04:25:40;67124.03;;;7.41;100.00
5988;BME280;3021;51.000;6.980;2024-03-02T04:28:06;67115.84;;;7.32;100.00
5988;BME280;3021;51.000;6.980;2024-03-02T04:30:31;67108.75;;;7.23;100.00
5988;BME280;3021;51.000;6.980;2024-03-02T04:32:56;67094.50;;;7.13;100.00
5988;BME280;3021;51.000;6.980;2024-03-02T04:35:22;67101.44;;;7.19;100.00
5988;BME280;3021;51.000;6.980;2024-03-02T04:37:47;67119.28;;;7.35;100.00
5988;BME280;3021;51.000;6.980;2024-03-02T04:40:12;67132.53;;;7.47;100.00
5988;BME280;3021;51.000;6.980;2024-03-02T04:42:38;67130.25;;;7.44;100.00
5988;BME280;3021;51.000;6.980;2024-03-02T04:45:03;67122.16;;;7.37;100.00
5988;BME280;3021;51.000;6.980;2024-03-02T04:47:29;67118.56;;;7.32;100.00
5988;BME280;3021;51.000;6.980;2024-03-02T04:49:54;67083.72;;;7.05;100.00
5988;BME280;3021;51.000;6.980;2024-03-02T04:52:19;67062.25;;;6.84;100.00
5988;BME280;3021;51.000;6.980;2024-03-02T04:54:45;67050.13;;;6.73;100.00
5988;BME280;3021;51.000;6.980;2024-03-02T04:57:29;67051.72;;;6.72;100.00
5988;BME280;3021;51.000;6.980;2024-03-02T04:59:54;67033.00;;;6.60;100.00
5988;BME280;3021;51.000;6.980;2024-03-02T05:02:20;67043.97;;;6.70;100.00
5988;BME280;3021;51.000;6.980;2024-03-02T05:04:45;67048.28;;;6.69;100.00
5988;BME280;3021;51.000;6.980;2024-03-02T05:07:10;67059.78;;;6.79;100.00
5988;BME280;3021;51.000;6.980;2024-03-02T05:09:35;67045.53;;;6.69;100.00
5988;BME280;3021;51.000;6.980;2024-03-02T05:12:01;67050.72;;;6.73;100.00
5988;BME280;3021;51.000;6.980;2024-03-02T05:14:45;67048.00;;;6.73;100.00
5988;BME280;3021;51.000;6.980;2024-03-02T05:17:11;67067.56;;;6.91;100.00
5988;BME280;3021;51.000;6.980;2024-03-02T05:19:36;67088.75;;;7.07;100.00
5988;BME280;3021;51.000;6.980;2024-03-02T05:22:01;67087.59;;;7.06;100.00
5988;BME280;3021;51.000;6.980;2024-03-02T05:24:28;67080.81;;;7.03;100.00
5988;BME280;3021;51.000;6.980;2024-03-02T05:26:53;67086.88;;;7.03;100.00
5988;BME280;3021;51.000;6.980;2024-03-02T05:29:19;67078.94;;;6.99;100.00
5988;BME280;3021;51.000;6.980;2024-03-02T05:31:44;67065.69;;;6.87;100.00
5988;BME280;3021;51.000;6.980;2024-03-02T05:34:09;67058.94;;;6.83;100.00
5988;BME280;3021;51.000;6.980;2024-03-02T05:36:35;67039.78;;;6.64;100.00
5988;BME280;3021;51.000;6.980;2024-03-02T05:39:00;67017.31;;;6.44;100.00
5988;BME280;3021;51.000;6.980;2024-03-02T05:41:26;67005.09;;;6.30;100.00
5988;BME280;3021;51.000;6.980;2024-03-02T05:43:51;67012.72;;;6.39;100.00
5988;BME280;3021;51.000;6.980;2024-03-02T05:46:17;67005.81;;;6.33;100.00
5988;BME280;3021;51.000;6.980;2024-03-02T05:48:42;67025.94;;;6.51;100.00
5988;BME280;3021;51.000;6.980;2024-03-02T05:51:07;67012.72;;;6.39;100.00
5988;BME280;3021;51.000;6.980;2024-03-02T05:53:33;67007.38;;;6.32;100.00
5988;BME280;3021;51.000;6.980;2024-03-02T05:55:58;67000.63;;;6.29;100.00
5988;BME280;3021;51.000;6.980;2024-03-02T05:58:24;67014.44;;;6.41;100.00
5988;BME280;3021;51.000;6.980;2024-03-02T06:00:49;66993.88;;;6.25;100.00
5988;BME280;3021;51.000;6.980;2024-03-02T06:03:14;66970.84;;;6.04;100.00
5988;BME280;3021;51.000;6.980;2024-03-02T06:05:40;66994.31;;;6.23;100.00
5988;BME280;3021;51.000;6.980;2024-03-02T06:08:06;66982.63;;;6.10;100.00
5988;BME280;3021;51.000;6.980;2024-03-02T06:10:32;66992.00;;;6.21;100.00
5988;BME280;3021;51.000;6.980;2024-03-02T06:12:58;67007.94;;;6.33;100.00
5988;BME280;3021;51.000;6.980;2024-03-02T06:15:24;67014.28;;;6.38;100.00
5988;BME280;3021;51.000;6.980;2024-03-02T06:17:49;67035.00;;;6.57;100.00
5988;BME280;3021;51.000;6.980;2024-03-02T06:20:15;67051.28;;;6.74;100.00
5988;BME280;3021;51.000;6.980;2024-03-02T06:22:40;67066.28;;;6.87;100.00
5988;BME280;3021;51.000;6.980;2024-03-02T06:25:06;67061.50;;;6.81;100.00
5988;BME280;3021;51.000;6.980;2024-03-02T06:27:31;67049.00;;;6.72;100.00
5988;BME280;3021;51.000;6.980;2024-03-02T06:29:56;67048.56;;;6.74;100.00
5988;BME280;3021;51.000;6.980;2024-03-02T06:32:22;67071.31;;;6.89;100.00
5988;BME280;3021;51.000;6.980;2024-03-02T06:34:48;67075.66;;;6.98;100.00
5988;BME280;3021;51.000;6.980;2024-03-02T06:37:13;67086.88;;;7.03;100.00
5988;BME280;3021;51.000;6.980;2024-03-02T06:39:40;67088.16;;;7.07;100.00
5988;BME280;3021;51.000;6.980;2024-03-02T06:42:05;67091.63;;;7.10;100.00
5988;BME280;3021;51.000;6.980;2024-03-02T06:44:30;67107.44;;;7.19;100.00
5988;BME280;3021;51.000;6.980;2024-03-02T06:46:56;67108.34;;;7.25;100.00
5988;BME280;3021;51.000;6.980;2024-03-02T06:49:21;67119.84;;;7.35;100.00
5988;BME280;3021;51.000;6.980;2024-03-02T06:51:47;67122.59;;;7.35;100.00
5988;BME280;3021;51.000;6.980;2024-03-02T06:54:12;67127.34;;;7.42;100.00
5988;BME280;3021;51.000;6.980;2024-03-02T06:56:40;67136.16;;;7.52;100.00
5988;BME280;3021;51.000;6.980;2024-03-02T06:59:05;67142.34;;;7.55;100.00
5988;BME280;3021;51.000;6.980;2024-03-02T07:01:31;67146.94;;;7.59;100.00
5988;BME280;3021;51.000;6.980;2024-03-02T07:03:56;67136.16;;;7.52;100.00
5988;BME280;3021;51.000;6.980;2024-03-02T07:06:21;67156.91;;;7.71;100.00
5988;BME280;3021;51.000;6.980;2024-03-02T07:08:47;67156.75;;;7.68;100.00
5988;BME280;3021;51.000;6.980;2024-03-02T07:11:12;67164.25;;;7.75;100.00
5988;BME280;3021;51.000;6.980;2024-03-02T07:13:37;67193.47;;;7.99;100.00
5988;BME280;3021;51.000;6.980;2024-03-02T07:16:03;67185.16;;;7.96;100.00
5988;BME280;3021;51.000;6.980;2024-03-02T07:18:32;67189.75;;;8.00;100.00
5988;BME280;3021;51.000;6.980;2024-03-02T07:20:58;67203.03;;;8.12;100.00
5988;BME280;3021;51.000;6.980;2024-03-02T07:23:26;67238.06;;;8.41;100.00
5988;BME280;3021;51.000;6.980;2024-03-02T07:25:53;67263.75;;;8.69;100.00
5988;BME280;3021;51.000;6.980;2024-03-02T07:28:22;67294.19;;;8.93;100.00
5988;BME280;3021;51.000;6.980;2024-03-02T07:31:05;67321.16;;;9.15;100.00
5988;BME280;3021;51.000;6.980;2024-03-02T07:33:31;67350.19;;;9.43;100.00
5988;BME280;3021;51.000;6.980;2024-03-02T07:35:57;67382.50;;;9.72;100.00
5988;BME280;3021;51.000;6.980;2024-03-02T07:38:25;67413.69;;;10.00;100.00
5988;BME280;3021;51.000;6.980;2024-03-02T07:40:50;67451.84;;;10.34;100.00
5988;BME280;3021;51.000;6.980;2024-03-02T07:43:17;67478.41;;;10.58;100.00
5988;BME280;3021;51.000;6.980;2024-03-02T07:45:42;67514.69;;;10.87;100.00
5988;BME280;3021;51.000;6.980;2024-03-02T07:48:08;67546.63;;;11.18;100.00
5988;BME280;3021;51.000;6.980;2024-03-02T07:50:33;67576.25;;;11.47;100.00
5988;BME280;3021;51.000;6.980;2024-03-02T07:53:00;67543.16;;;11.15;100.00
5988;BME280;3021;51.000;6.980;2024-03-02T07:55:26;67607.91;;;11.73;100.00
5988;BME280;3021;51.000;6.980;2024-03-02T07:57:51;67829.09;;;13.70;100.00
5988;BME280;3021;51.000;6.980;2024-03-02T08:00:17;67905.16;;;14.40;100.00
5988;BME280;3021;51.000;6.980;2024-03-02T08:02:42;67812.88;;;13.55;100.00
5988;BME280;3021;51.000;6.980;2024-03-02T08:05:08;67718.59;;;12.74;100.00
5988;BME280;3021;51.000;6.980;2024-03-02T08:07:34;67693.13;;;12.51;100.00
5988;BME280;3021;51.000;6.980;2024-03-02T08:09:59;67746.97;;;12.99;100.00
5988;BME280;3021;51.000;6.980;2024-03-02T08:12:25;68232.09;;;17.32;100.00
5988;BME280;3021;51.000;6.980;2024-03-02T08:14:50;68530.53;;;19.96;100.00
5988;BME280;3021;51.000;6.980;2024-03-02T08:17:15;68581.19;;;20.41;100.00
5988;BME280;3021;51.000;6.980;2024-03-02T08:19:41;68672.66;;;21.22;100.00
5988;BME280;3021;51.000;6.980;2024-03-02T08:22:06;68668.00;;;21.18;100.00
5988;BME280;3021;51.000;6.980;2024-03-02T08:24:32;68699.03;;;21.48;100.00
5988;BME280;3021;51.000;6.980;2024-03-02T08:26:59;68682.69;;;21.33;100.00
5988;BME280;3021;51.000;6.980;2024-03-02T08:29:25;68637.13;;;20.91;100.00
5988;BME280;3021;51.000;6.980;2024-03-02T08:31:50;68578.25;;;20.38;100.00
5988;BME280;3021;51.000;6.980;2024-03-02T08:34:16;68585.84;;;20.45;100.00
5988;BME280;3021;51.000;6.980;2024-03-02T08:36:41;68518.28;;;19.85;100.00
5988;BME280;3021;51.000;6.980;2024-03-02T08:39:08;68566.03;;;20.28;100.00
5988;BME280;3021;51.000;6.980;2024-03-02T08:41:46;68487.41;;;19.58;100.00
5988;BME280;3021;51.000;6.980;2024-03-02T08:44:13;68296.47;;;17.87;100.00
5988;BME280;3021;51.000;6.980;2024-03-02T08:46:39;68265.06;;;17.59;100.00
5988;BME280;3021;51.000;6.980;2024-03-02T08:49:05;68319.28;;;18.09;100.00
5988;BME280;3021;51.000;6.980;2024-03-02T08:51:31;68415.72;;;18.92;100.00
5988;BME280;3021;51.000;6.980;2024-03-02T08:53:57;68433.19;;;19.08;100.00
5988;BME280;3021;51.000;6.980;2024-03-02T08:56:23;68499.53;;;19.66;100.00
5988;BME280;3021;51.000;6.980;2024-03-02T08:58:49;68485.53;;;19.54;100.00
5988;BME280;3021;51.000;6.980;2024-03-02T09:01:15;68403.47;;;18.81;100.00
5988;BME280;3021;51.000;6.980;2024-03-02T09:03:41;68348.69;;;18.30;100.00
5988;BME280;3021;51.000;6.980;2024-03-02T09:06:10;68272.78;;;17.68;100.00
5988;BME280;3021;51.000;6.980;2024-03-02T09:08:35;68194.19;;;16.96;100.00
5988;BME280;3021;51.000;6.980;2024-03-02T09:11:02;68217.56;;;17.19;100.00
5988;BME280;3021;51.000;6.980;2024-03-02T09:13:27;68364.50;;;18.47;100.00
5988;BME280;3021;51.000;6.980;2024-03-02T09:15:53;68576.97;;;20.35;100.00
5988;BME280;3021;51.000;6.980;2024-03-02T09:18:18;68541.47;;;20.03;100.00
5988;BME280;3021;51.000;6.980;2024-03-02T09:20:44;68599.69;;;20.55;100.00
5988;BME280;3021;51.000;6.980;2024-03-02T09:23:09;68717.31;;;21.56;100.00
5988;BME280;3021;51.000;6.980;2024-03-02T09:25:34;68882.63;;;23.07;100.00
5988;BME280;3021;51.000;6.980;2024-03-02T09:28:00;68949.78;;;23.67;100.00
5988;BME280;3021;51.000;6.980;2024-03-02T09:30:25;68914.75;;;23.36;100.00
5988;BME280;3021;51.000;6.980;2024-03-02T09:32:50;68890.69;;;23.12;100.00
5988;BME280;3021;51.000;6.980;2024-03-02T09:35:15;68840.50;;;22.68;100.00
5988;BME280;3021;51.000;6.980;2024-03-02T09:37:41;68986.56;;;23.99;100.00
5988;BME280;3021;51.000;6.980;2024-03-02T09:40:07;69275.34;;;26.53;100.00
5988;BME280;3021;51.000;6.980;2024-03-02T09:42:32;69219.78;;;26.04;100.00
5988;BME280;3021;51.000;6.980;2024-03-02T09:44:57;69186.44;;;25.75;100.00
5988;BME280;3021;51.000;6.980;2024-03-02T09:47:23;69005.13;;;24.13;100.00
5988;BME280;3021;51.000;6.980;2024-03-02T09:49:49;68814.84;;;22.45;100.00
5988;BME280;3021;51.000;6.980;2024-03-02T09:52:14;68616.72;;;20.73;100.00
5988;BME280;3021;51.000;6.980;2024-03-02T09:54:41;68511.31;;;19.79;100.00
5988;BME280;3021;51.000;6.980;2024-03-02T09:57:06;68418.63;;;18.95;100.00
5988;BME280;3021;51.000;6.980;2024-03-02T09:59:32;68477.41;;;19.47;100.00
5988;BME280;3021;51.000;6.980;2024-03-02T10:01:58;68536.19;;;19.99;100.00
5988;BME280;3021;51.000;6.980;2024-03-02T10:04:28;68667.88;;;21.15;100.00
5988;BME280;3021;51.000;6.980;2024-03-02T10:07:12;68730.72;;;21.68;100.00
5988;BME280;3021;51.000;6.980;2024-03-02T10:09:38;68676.59;;;21.23;100.00
5988;BME280;3021;51.000;6.980;2024-03-02T10:12:04;68703.44;;;21.47;100.00
5988;BME280;3021;51.000;6.980;2024-03-02T10:14:30;68612.63;;;20.69;100.00
5988;BME280;3021;51.000;6.980;2024-03-02T10:17:02;68551.34;;;20.12;100.00
5988;BME280;3021;51.000;6.980;2024-03-02T10:19:27;68472.75;;;19.43;100.00
5988;BME280;3021;51.000;6.980;2024-03-02T10:21:57;68502.31;;;19.66;100.00
5988;BME280;3021;51.000;6.980;2024-03-02T10:24:23;68602.00;;;20.57;100.00
5988;BME280;3021;51.000;6.980;2024-03-02T10:26:49;68738.53;;;21.80;100.00
5988;BME280;3021;51.000;6.980;2024-03-02T10:29:15;68876.34;;;23.04;100.00
5988;BME280;3021;51.000;6.980;2024-03-02T10:31:42;68928.63;;;23.45;100.00
5988;BME280;3021;51.000;6.980;2024-03-02T10:34:09;68977.25;;;23.91;100.00
5988;BME280;3021;51.000;6.980;2024-03-02T10:36:35;68903.66;;;23.26;100.00
5988;BME280;3021;51.000;6.980;2024-03-02T10:39:04;68936.81;;;23.53;100.00
5988;BME280;3021;51.000;6.980;2024-03-02T10:41:34;68790.44;;;22.26;100.00
5988;BME280;3021;51.000;6.980;2024-03-02T10:44:02;68778.78;;;22.16;100.00
5988;BME280;3021;51.000;6.980;2024-03-02T10:46:29;68878.56;;;23.04;100.00
5988;BME280;3021;51.000;6.980;2024-03-02T10:48:56;68839.34;;;22.67;100.00
5988;BME280;3021;51.000;6.980;2024-03-02T10:51:24;68861.63;;;22.89;100.00
5988;BME280;3021;51.000;6.980;2024-03-02T10:53:50;68900.72;;;23.23;100.00
5988;BME280;3021;51.000;6.980;2024-03-02T10:56:21;68782.13;;;22.16;100.00
5988;BME280;3021;51.000;6.980;2024-03-02T10:58:50;68611.78;;;20.63;100.00
5988;BME280;3021;51.000;6.980;2024-03-02T11:01:17;68561.13;;;20.18;100.00
5988;BME280;3021;51.000;6.980;2024-03-02T11:03:44;68404.50;;;18.80;100.00
5988;BME280;3021;51.000;6.980;2024-03-02T11:06:11;68208.13;;;17.08;100.00
5988;BME280;3021;51.000;6.980;2024-03-02T11:08:38;68122.59;;;16.30;100.00
5988;BME280;3021;51.000;6.980;2024-03-02T11:11:15;68035.41;;;15.50;100.00
5988;BME280;3021;51.000;6.980;2024-03-02T11:13:42;68000.13;;;15.21;100.00
5988;BME280;3021;51.000;6.980;2024-03-02T11:16:30;67961.28;;;14.87;100.00
5988;BME280;3021;51.000;6.980;2024-03-02T11:18:59;67935.75;;;14.64;100.00
5988;BME280;3021;51.000;6.980;2024-03-02T11:21:25;67939.25;;;14.67;100.00
5988;BME280;3021;51.000;6.980;2024-03-02T11:23:51;67938.66;;;14.67;100.00
5988;BME280;3021;51.000;6.980;2024-03-02T11:26:20;67920.09;;;14.50;100.00
5988;BME280;3021;51.000;6.980;2024-03-02T11:28:46;67921.97;;;14.55;100.00
5988;BME280;3021;51.000;6.980;2024-03-02T11:31:12;67946.78;;;14.74;100.00
5988;BME280;3021;51.000;6.980;2024-03-02T11:33:37;67971.13;;;14.96;100.00
5988;BME280;3021;51.000;6.980;2024-03-02T11:36:03;67964.63;;;14.88;100.00
5988;BME280;3021;51.000;6.980;2024-03-02T11:38:31;67935.19;;;14.64;100.00
5988;BME280;3021;51.000;6.980;2024-03-02T11:40:59;67944.31;;;14.69;100.00
5988;BME280;3021;51.000;6.980;2024-03-02T11:43:26;67948.38;;;14.73;100.00
5988;BME280;3021;51.000;6.980;2024-03-02T11:45:57;67936.78;;;14.63;100.00
5988;BME280;3021;51.000;6.980;2024-03-02T11:48:24;67927.19;;;14.59;100.00
5988;BME280;3021;51.000;6.980;2024-03-02T11:50:50;67918.34;;;14.49;100.00
5988;BME280;3021;51.000;6.980;2024-03-02T11:53:16;67922.97;;;14.53;100.00
5988;BME280;3021;51.000;6.980;2024-03-02T11:55:42;67917.06;;;14.45;100.00
5988;BME280;3021;51.000;6.980;2024-03-02T11:58:12;67934.63;;;14.63;100.00
5988;BME280;3021;51.000;6.980;2024-03-02T12:00:37;67948.50;;;14.76;100.00
5988;BME280;3021;51.000;6.980;2024-03-02T12:03:07;67924.16;;;14.54;100.00
5988;BME280;3021;51.000;6.980;2024-03-02T12:05:34;67965.34;;;14.91;100.00
5988;BME280;3021;51.000;6.980;2024-03-02T12:08:01;67975.06;;;14.97;100.00
5988;BME280;3021;51.000;6.980;2024-03-02T12:10:27;67974.50;;;14.96;100.00
5988;BME280;3021;51.000;6.980;2024-03-02T12:13:00;67967.09;;;14.92;100.00
5988;BME280;3021;51.000;6.980;2024-03-02T12:15:30;67954.75;;;14.79;100.00
5988;BME280;3021;51.000;6.980;2024-03-02T12:17:57;67971.72;;;14.96;100.00
5988;BME280;3021;51.000;6.980;2024-03-02T12:20:23;68013.91;;;15.31;100.00
5988;BME280;3021;51.000;6.980;2024-03-02T12:22:53;68020.44;;;15.40;100.00
5988;BME280;3021;51.000;6.980;2024-03-02T12:25:22;68033.78;;;15.51;100.00
5988;BME280;3021;51.000;6.980;2024-03-02T12:27:54;68036.13;;;15.53;100.00
5988;BME280;3021;51.000;6.980;2024-03-02T12:30:20;68030.88;;;15.49;100.00
5988;BME280;3021;51.000;6.980;2024-03-02T12:32:46;68027.41;;;15.46;100.00
5988;BME280;3021;51.000;6.980;2024-03-02T12:35:12;68071.53;;;15.85;100.00
5988;BME280;3021;51.000;6.980;2024-03-02T12:37:48;68070.94;;;15.84;100.00
5988;BME280;3021;51.000;6.980;2024-03-02T12:40:14;68042.50;;;15.59;100.00
5988;BME280;3021;51.000;6.980;2024-03-02T12:42:40;68014.63;;;15.34;100.00
5988;BME280;3021;51.000;6.980;2024-03-02T12:45:07;67992.72;;;15.17;100.00
5988;BME280;3021;51.000;6.980;2024-03-02T12:47:36;68003.63;;;15.25;100.00
5988;BME280;3021;51.000;6.980;2024-03-02T12:50:04;68009.00;;;15.32;100.00
5988;BME280;3021;51.000;6.980;2024-03-02T12:52:30;68023.78;;;15.40;100.00
5988;BME280;3021;51.000;6.980;2024-03-02T12:54:56;68044.38;;;15.63;100.00
5988;BME280;3021;51.000;6.980;2024-03-02T12:57:34;68080.22;;;15.93;100.00
5988;BME280;3021;51.000;6.980;2024-03-02T13:00:00;68082.13;;;15.97;100.00
5988;BME280;3021;51.000;6.980;2024-03-02T13:02:30;68095.31;;;16.06;100.00
5988;BME280;3021;51.000;6.980;2024-03-02T13:04:57;68046.69;;;15.65;100.00
5988;BME280;3021;51.000;6.980;2024-03-02T13:07:26;68057.59;;;15.72;100.00
5988;BME280;3021;51.000;6.980;2024-03-02T13:09:53;68079.06;;;15.92;100.00
5988;BME280;3021;51.000;6.980;2024-03-02T13:12:21;68045.53;;;15.64;100.00